Golden, Illinois
Current Conditions -  °F | °C
As of 2:54 AM on Saturday 25 Oct 2014 (Local Time) from KUIN Reporting Station
Haze Haze  
Wind Chill: 57°   Ceiling: Unl
Heat Index: 57°   Visibility: 3mi
Dew Point: 56°   Wind: 5mph
Humidity: 96%   Direction: 240°WSW
Pressure: 29.97"   Gusts: NA
Location:  40.11°N, 91.02°W
Report Text: KUIN 250754Z AUTO 24004KT 3SM BR CLR 14/13 A2997 RMK AO2 SLP145 T01390133
Loading
Personal Weather Stations






























Interactive Weather Map
Tropical Storm Tracking
New forecast layout! Learn more

10-Day Weather Forecast

Advertisements
Track Severe Weather on mobile